sensor_id;sensor_type;location;lat;lon;timestamp;P1;durP1;ratioP1;P2;durP2;ratioP2
37267;SDS011;23154;52.542;13.362;2023-11-21T00:00:31;32.72;;;15.10;;
37267;SDS011;23154;52.542;13.362;2023-11-21T00:02:56;35.15;;;15.60;;
37267;SDS011;23154;52.542;13.362;2023-11-21T00:05:22;37.60;;;16.42;;
37267;SDS011;23154;52.542;13.362;2023-11-21T00:07:48;39.97;;;16.05;;
37267;SDS011;23154;52.542;13.362;2023-11-21T00:10:14;41.50;;;16.98;;
37267;SDS011;23154;52.542;13.362;2023-11-21T00:12:41;42.20;;;17.08;;
37267;SDS011;23154;52.542;13.362;2023-11-21T00:15:07;49.97;;;19.85;;
37267;SDS011;23154;52.542;13.362;2023-11-21T00:17:39;49.88;;;20.65;;
37267;SDS011;23154;52.542;13.362;2023-11-21T00:20:05;55.13;;;21.83;;
37267;SDS011;23154;52.542;13.362;2023-11-21T00:22:35;50.20;;;21.17;;
37267;SDS011;23154;52.542;13.362;2023-11-21T00:25:01;60.45;;;22.42;;
37267;SDS011;23154;52.542;13.362;2023-11-21T00:27:28;52.65;;;22.13;;
37267;SDS011;23154;52.542;13.362;2023-11-21T00:29:55;66.10;;;24.02;;
37267;SDS011;23154;52.542;13.362;2023-11-21T00:32:20;64.47;;;22.25;;
37267;SDS011;23154;52.542;13.362;2023-11-21T00:34:46;68.18;;;22.98;;
37267;SDS011;23154;52.542;13.362;2023-11-21T00:37:12;59.25;;;22.30;;
37267;SDS011;23154;52.542;13.362;2023-11-21T00:39:37;57.67;;;22.85;;
37267;SDS011;23154;52.542;13.362;2023-11-21T00:42:03;61.42;;;23.10;;
37267;SDS011;23154;52.542;13.362;2023-11-21T00:44:30;73.80;;;26.60;;
37267;SDS011;23154;52.542;13.362;2023-11-21T00:46:55;72.90;;;24.20;;
37267;SDS011;23154;52.542;13.362;2023-11-21T00:49:22;78.20;;;26.17;;
37267;SDS011;23154;52.542;13.362;2023-11-21T00:51:48;81.53;;;26.73;;
37267;SDS011;23154;52.542;13.362;2023-11-21T00:54:14;84.20;;;28.38;;
37267;SDS011;23154;52.542;13.362;2023-11-21T00:56:42;86.25;;;27.80;;
37267;SDS011;23154;52.542;13.362;2023-11-21T00:59:08;76.53;;;29.27;;
37267;SDS011;23154;52.542;13.362;2023-11-21T01:01:33;91.75;;;29.77;;
37267;SDS011;23154;52.542;13.362;2023-11-21T01:03:59;86.38;;;31.70;;
37267;SDS011;23154;52.542;13.362;2023-11-21T01:06:25;94.90;;;33.80;;
37267;SDS011;23154;52.542;13.362;2023-11-21T01:08:50;90.22;;;31.27;;
37267;SDS011;23154;52.542;13.362;2023-11-21T01:11:16;101.50;;;31.67;;
37267;SDS011;23154;52.542;13.362;2023-11-21T01:13:42;99.40;;;31.65;;
37267;SDS011;23154;52.542;13.362;2023-11-21T01:16:09;87.15;;;31.00;;
37267;SDS011;23154;52.542;13.362;2023-11-21T01:18:35;95.32;;;30.15;;
37267;SDS011;23154;52.542;13.362;2023-11-21T01:21:01;105.40;;;29.70;;
37267;SDS011;23154;52.542;13.362;2023-11-21T01:23:27;100.65;;;31.15;;
37267;SDS011;23154;52.542;13.362;2023-11-21T01:25:52;79.60;;;26.08;;
37267;SDS011;23154;52.542;13.362;2023-11-21T01:28:21;92.18;;;27.38;;
37267;SDS011;23154;52.542;13.362;2023-11-21T01:30:47;82.13;;;26.15;;
37267;SDS011;23154;52.542;13.362;2023-11-21T01:33:13;79.63;;;24.48;;
37267;SDS011;23154;52.542;13.362;2023-11-21T01:35:40;79.10;;;26.63;;
37267;SDS011;23154;52.542;13.362;2023-11-21T01:38:11;79.68;;;26.80;;
37267;SDS011;23154;52.542;13.362;2023-11-21T01:40:37;70.22;;;23.08;;
37267;SDS011;23154;52.542;13.362;2023-11-21T01:43:02;73.05;;;24.13;;
37267;SDS011;23154;52.542;13.362;2023-11-21T01:45:28;78.95;;;25.33;;
37267;SDS011;23154;52.542;13.362;2023-11-21T01:47:56;73.90;;;24.88;;
37267;SDS011;23154;52.542;13.362;2023-11-21T01:50:23;73.57;;;25.15;;
37267;SDS011;23154;52.542;13.362;2023-11-21T01:52:49;67.63;;;22.02;;
37267;SDS011;23154;52.542;13.362;2023-11-21T01:55:16;66.38;;;23.77;;
37267;SDS011;23154;52.542;13.362;2023-11-21T01:57:43;63.17;;;20.33;;
37267;SDS011;23154;52.542;13.362;2023-11-21T02:00:10;64.47;;;21.35;;
37267;SDS011;23154;52.542;13.362;2023-11-21T02:02:43;60.83;;;18.98;;
37267;SDS011;23154;52.542;13.362;2023-11-21T02:05:13;53.13;;;17.35;;
37267;SDS011;23154;52.542;13.362;2023-11-21T02:07:50;51.00;;;17.45;;
37267;SDS011;23154;52.542;13.362;2023-11-21T02:10:17;56.30;;;17.30;;
37267;SDS011;23154;52.542;13.362;2023-11-21T02:15:15;41.75;;;15.85;;
37267;SDS011;23154;52.542;13.362;2023-11-21T02:17:49;50.95;;;17.55;;
37267;SDS011;23154;52.542;13.362;2023-11-21T02:20:16;44.63;;;15.52;;
37267;SDS011;23154;52.542;13.362;2023-11-21T02:22:43;49.53;;;16.10;;
37267;SDS011;23154;52.542;13.362;2023-11-21T02:25:22;44.13;;;14.97;;
37267;SDS011;23154;52.542;13.362;2023-11-21T02:27:59;42.25;;;14.93;;
37267;SDS011;23154;52.542;13.362;2023-11-21T02:30:26;39.05;;;15.23;;
37267;SDS011;23154;52.542;13.362;2023-11-21T02:32:58;34.13;;;13.60;;
37267;SDS011;23154;52.542;13.362;2023-11-21T02:35:24;31.02;;;12.73;;
37267;SDS011;23154;52.542;13.362;2023-11-21T02:37:53;30.83;;;13.18;;
37267;SDS011;23154;52.542;13.362;2023-11-21T02:40:19;33.25;;;13.02;;
37267;SDS011;23154;52.542;13.362;2023-11-21T02:42:50;35.65;;;13.13;;
37267;SDS011;23154;52.542;13.362;2023-11-21T02:45:16;34.95;;;12.82;;
37267;SDS011;23154;52.542;13.362;2023-11-21T02:47:45;35.15;;;13.80;;
37267;SDS011;23154;52.542;13.362;2023-11-21T02:50:12;31.52;;;13.15;;
37267;SDS011;23154;52.542;13.362;2023-11-21T02:52:38;28.30;;;11.82;;
37267;SDS011;23154;52.542;13.362;2023-11-21T02:55:05;27.40;;;12.63;;
37267;SDS011;23154;52.542;13.362;2023-11-21T02:57:32;29.15;;;13.50;;
37267;SDS011;23154;52.542;13.362;2023-11-21T02:59:58;28.27;;;13.13;;
37267;SDS011;23154;52.542;13.362;2023-11-21T03:02:25;28.70;;;13.63;;
37267;SDS011;23154;52.542;13.362;2023-11-21T03:04:50;27.67;;;12.88;;
37267;SDS011;23154;52.542;13.362;2023-11-21T03:07:16;29.52;;;13.25;;
37267;SDS011;23154;52.542;13.362;2023-11-21T03:09:44;31.40;;;13.60;;
37267;SDS011;23154;52.542;13.362;2023-11-21T03:12:10;28.35;;;13.20;;
37267;SDS011;23154;52.542;13.362;2023-11-21T03:14:37;28.33;;;13.18;;
37267;SDS011;23154;52.542;13.362;2023-11-21T03:17:04;26.20;;;13.57;;
37267;SDS011;23154;52.542;13.362;2023-11-21T03:19:31;28.50;;;13.45;;
37267;SDS011;23154;52.542;13.362;2023-11-21T03:21:57;28.80;;;12.68;;
37267;SDS011;23154;52.542;13.362;2023-11-21T03:24:22;27.30;;;13.60;;
37267;SDS011;23154;52.542;13.362;2023-11-21T03:26:48;26.00;;;12.20;;
37267;SDS011;23154;52.542;13.362;2023-11-21T03:29:17;27.55;;;11.85;;
37267;SDS011;23154;52.542;13.362;2023-11-21T03:31:42;25.27;;;11.73;;
37267;SDS011;23154;52.542;13.362;2023-11-21T03:34:10;26.50;;;11.90;;
37267;SDS011;23154;52.542;13.362;2023-11-21T03:36:40;28.50;;;13.20;;
37267;SDS011;23154;52.542;13.362;2023-11-21T03:39:05;27.25;;;13.18;;
37267;SDS011;23154;52.542;13.362;2023-11-21T03:41:31;25.73;;;10.98;;
37267;SDS011;23154;52.542;13.362;2023-11-21T03:43:57;26.25;;;10.45;;
37267;SDS011;23154;52.542;13.362;2023-11-21T03:46:22;25.35;;;11.35;;
37267;SDS011;23154;52.542;13.362;2023-11-21T03:48:48;25.00;;;11.15;;
37267;SDS011;23154;52.542;13.362;2023-11-21T03:51:14;25.38;;;12.10;;
37267;SDS011;23154;52.542;13.362;2023-11-21T03:53:39;23.33;;;11.43;;
37267;SDS011;23154;52.542;13.362;2023-11-21T03:56:05;27.17;;;12.63;;
37267;SDS011;23154;52.542;13.362;2023-11-21T03:58:31;24.85;;;11.60;;
37267;SDS011;23154;52.542;13.362;2023-11-21T04:00:56;27.02;;;12.50;;
37267;SDS011;23154;52.542;13.362;2023-11-21T04:03:22;28.65;;;12.70;;
37267;SDS011;23154;52.542;13.362;2023-11-21T04:05:48;28.05;;;13.90;;
37267;SDS011;23154;52.542;13.362;2023-11-21T04:08:13;26.42;;;12.27;;
37267;SDS011;23154;52.542;13.362;2023-11-21T04:10:39;26.33;;;12.23;;
37267;SDS011;23154;52.542;13.362;2023-11-21T04:13:05;27.45;;;13.02;;
37267;SDS011;23154;52.542;13.362;2023-11-21T04:15:31;26.70;;;12.55;;
37267;SDS011;23154;52.542;13.362;2023-11-21T04:17:57;27.63;;;13.10;;
37267;SDS011;23154;52.542;13.362;2023-11-21T04:20:23;25.23;;;12.02;;
37267;SDS011;23154;52.542;13.362;2023-11-21T04:22:49;29.77;;;12.90;;
37267;SDS011;23154;52.542;13.362;2023-11-21T04:25:15;25.08;;;11.70;;
37267;SDS011;23154;52.542;13.362;2023-11-21T04:27:41;24.23;;;10.98;;
37267;SDS011;23154;52.542;13.362;2023-11-21T04:30:09;25.35;;;11.43;;
37267;SDS011;23154;52.542;13.362;2023-11-21T04:32:35;24.95;;;11.15;;
37267;SDS011;23154;52.542;13.362;2023-11-21T04:35:01;24.02;;;11.27;;
37267;SDS011;23154;52.542;13.362;2023-11-21T04:37:28;22.17;;;9.77;;
37267;SDS011;23154;52.542;13.362;2023-11-21T04:39:54;24.92;;;11.25;;
37267;SDS011;23154;52.542;13.362;2023-11-21T04:42:20;25.08;;;11.73;;
37267;SDS011;23154;52.542;13.362;2023-11-21T04:44:45;25.33;;;11.48;;
37267;SDS011;23154;52.542;13.362;2023-11-21T04:47:11;24.55;;;11.23;;
37267;SDS011;23154;52.542;13.362;2023-11-21T04:49:37;23.75;;;10.85;;
37267;SDS011;23154;52.542;13.362;2023-11-21T04:52:05;23.63;;;11.60;;
37267;SDS011;23154;52.542;13.362;2023-11-21T04:54:30;24.83;;;11.20;;
37267;SDS011;23154;52.542;13.362;2023-11-21T04:56:56;25.38;;;10.35;;
37267;SDS011;23154;52.542;13.362;2023-11-21T04:59:22;23.17;;;9.98;;
37267;SDS011;23154;52.542;13.362;2023-11-21T05:01:52;22.83;;;9.98;;
37267;SDS011;23154;52.542;13.362;2023-11-21T05:04:18;19.88;;;8.32;;
37267;SDS011;23154;52.542;13.362;2023-11-21T05:06:44;20.05;;;8.75;;
37267;SDS011;23154;52.542;13.362;2023-11-21T05:09:11;22.92;;;9.68;;
37267;SDS011;23154;52.542;13.362;2023-11-21T05:11:37;22.13;;;9.45;;
37267;SDS011;23154;52.542;13.362;2023-11-21T05:14:04;24.05;;;8.52;;
37267;SDS011;23154;52.542;13.362;2023-11-21T05:16:30;21.38;;;8.63;;
37267;SDS011;23154;52.542;13.362;2023-11-21T05:18:56;22.08;;;8.48;;
37267;SDS011;23154;52.542;13.362;2023-11-21T05:21:27;22.98;;;8.55;;
37267;SDS011;23154;52.542;13.362;2023-11-21T05:23:55;21.63;;;8.98;;
37267;SDS011;23154;52.542;13.362;2023-11-21T05:26:20;21.20;;;8.88;;
37267;SDS011;23154;52.542;13.362;2023-11-21T05:28:46;21.60;;;9.48;;
37267;SDS011;23154;52.542;13.362;2023-11-21T05:31:12;22.20;;;8.90;;
37267;SDS011;23154;52.542;13.362;2023-11-21T05:33:38;22.25;;;9.25;;
37267;SDS011;23154;52.542;13.362;2023-11-21T05:36:04;23.60;;;9.40;;
37267;SDS011;23154;52.542;13.362;2023-11-21T05:38:32;22.83;;;9.32;;
37267;SDS011;23154;52.542;13.362;2023-11-21T05:41:00;21.73;;;8.73;;
37267;SDS011;23154;52.542;13.362;2023-11-21T05:43:26;19.58;;;7.10;;
37267;SDS011;23154;52.542;13.362;2023-11-21T05:45:53;19.55;;;8.25;;
37267;SDS011;23154;52.542;13.362;2023-11-21T05:48:19;20.77;;;9.02;;
37267;SDS011;23154;52.542;13.362;2023-11-21T05:50:45;23.15;;;9.60;;
37267;SDS011;23154;52.542;13.362;2023-11-21T05:53:11;19.75;;;8.27;;
37267;SDS011;23154;52.542;13.362;2023-11-21T05:55:36;19.50;;;8.43;;
37267;SDS011;23154;52.542;13.362;2023-11-21T05:58:04;21.88;;;8.77;;
37267;SDS011;23154;52.542;13.362;2023-11-21T06:00:30;19.77;;;8.32;;
37267;SDS011;23154;52.542;13.362;2023-11-21T06:02:57;21.27;;;7.65;;
37267;SDS011;23154;52.542;13.362;2023-11-21T06:05:23;18.75;;;7.13;;
37267;SDS011;23154;52.542;13.362;2023-11-21T06:07:50;20.70;;;8.73;;
37267;SDS011;23154;52.542;13.362;2023-11-21T06:10:19;19.27;;;7.15;;
37267;SDS011;23154;52.542;13.362;2023-11-21T06:12:48;18.65;;;6.80;;
37267;SDS011;23154;52.542;13.362;2023-11-21T06:15:14;16.95;;;6.07;;
37267;SDS011;23154;52.542;13.362;2023-11-21T06:17:40;16.17;;;5.70;;
37267;SDS011;23154;52.542;13.362;2023-11-21T06:20:08;17.02;;;6.30;;
37267;SDS011;23154;52.542;13.362;2023-11-21T06:25:02;18.73;;;6.15;;
37267;SDS011;23154;52.542;13.362;2023-11-21T06:27:29;15.05;;;4.97;;
37267;SDS011;23154;52.542;13.362;2023-11-21T06:29:56;16.98;;;6.05;;
37267;SDS011;23154;52.542;13.362;2023-11-21T06:32:21;14.38;;;4.95;;
37267;SDS011;23154;52.542;13.362;2023-11-21T06:34:47;17.58;;;6.15;;
37267;SDS011;23154;52.542;13.362;2023-11-21T06:37:14;16.33;;;5.28;;
37267;SDS011;23154;52.542;13.362;2023-11-21T06:39:40;15.27;;;4.75;;
37267;SDS011;23154;52.542;13.362;2023-11-21T06:42:06;16.25;;;5.15;;
37267;SDS011;23154;52.542;13.362;2023-11-21T06:44:32;15.93;;;5.10;;
37267;SDS011;23154;52.542;13.362;2023-11-21T06:46:58;15.63;;;5.43;;
37267;SDS011;23154;52.542;13.362;2023-11-21T06:49:24;13.65;;;4.72;;
37267;SDS011;23154;52.542;13.362;2023-11-21T06:51:50;16.17;;;5.18;;
37267;SDS011;23154;52.542;13.362;2023-11-21T06:54:16;16.13;;;5.28;;
37267;SDS011;23154;52.542;13.362;2023-11-21T06:56:42;14.63;;;4.82;;
37267;SDS011;23154;52.542;13.362;2023-11-21T06:59:07;15.73;;;5.65;;
37267;SDS011;23154;52.542;13.362;2023-11-21T07:01:34;15.75;;;5.53;;
37267;SDS011;23154;52.542;13.362;2023-11-21T07:04:04;13.63;;;4.75;;
37267;SDS011;23154;52.542;13.362;2023-11-21T07:06:31;19.10;;;6.25;;
37267;SDS011;23154;52.542;13.362;2023-11-21T07:08:56;18.02;;;5.10;;
37267;SDS011;23154;52.542;13.362;2023-11-21T07:11:23;20.05;;;5.85;;
37267;SDS011;23154;52.542;13.362;2023-11-21T07:13:50;15.27;;;5.32;;
37267;SDS011;23154;52.542;13.362;2023-11-21T07:16:16;16.65;;;5.80;;
37267;SDS011;23154;52.542;13.362;2023-11-21T07:18:41;18.98;;;6.50;;
37267;SDS011;23154;52.542;13.362;2023-11-21T07:21:07;15.00;;;5.00;;
37267;SDS011;23154;52.542;13.362;2023-11-21T07:23:33;16.48;;;5.70;;
37267;SDS011;23154;52.542;13.362;2023-11-21T07:25:59;18.80;;;6.45;;
37267;SDS011;23154;52.542;13.362;2023-11-21T07:28:24;17.52;;;6.07;;
37267;SDS011;23154;52.542;13.362;2023-11-21T07:30:53;16.33;;;6.10;;
37267;SDS011;23154;52.542;13.362;2023-11-21T07:33:19;15.52;;;5.35;;
37267;SDS011;23154;52.542;13.362;2023-11-21T07:35:45;15.38;;;5.65;;
37267;SDS011;23154;52.542;13.362;2023-11-21T07:38:10;18.13;;;5.97;;
37267;SDS011;23154;52.542;13.362;2023-11-21T07:40:36;15.95;;;5.50;;
37267;SDS011;23154;52.542;13.362;2023-11-21T07:43:02;18.45;;;6.82;;
37267;SDS011;23154;52.542;13.362;2023-11-21T07:45:27;16.13;;;6.38;;
37267;SDS011;23154;52.542;13.362;2023-11-21T07:47:53;16.67;;;6.32;;
37267;SDS011;23154;52.542;13.362;2023-11-21T07:50:20;19.55;;;6.28;;
37267;SDS011;23154;52.542;13.362;2023-11-21T07:52:47;17.75;;;6.25;;
37267;SDS011;23154;52.542;13.362;2023-11-21T07:55:14;17.67;;;6.32;;
37267;SDS011;23154;52.542;13.362;2023-11-21T07:57:40;16.60;;;6.10;;
37267;SDS011;23154;52.542;13.362;2023-11-21T08:00:06;15.57;;;5.45;;
37267;SDS011;23154;52.542;13.362;2023-11-21T08:02:34;20.70;;;6.57;;
37267;SDS011;23154;52.542;13.362;2023-11-21T08:05:00;16.50;;;5.95;;
37267;SDS011;23154;52.542;13.362;2023-11-21T08:07:25;16.05;;;5.68;;
37267;SDS011;23154;52.542;13.362;2023-11-21T08:09:51;15.00;;;5.22;;
37267;SDS011;23154;52.542;13.362;2023-11-21T08:12:17;17.02;;;6.18;;
37267;SDS011;23154;52.542;13.362;2023-11-21T08:14:45;15.63;;;5.40;;
37267;SDS011;23154;52.542;13.362;2023-11-21T08:17:10;14.20;;;4.95;;
37267;SDS011;23154;52.542;13.362;2023-11-21T08:19:36;16.13;;;5.97;;
37267;SDS011;23154;52.542;13.362;2023-11-21T08:22:03;15.23;;;6.15;;
37267;SDS011;23154;52.542;13.362;2023-11-21T08:24:29;15.13;;;5.60;;
37267;SDS011;23154;52.542;13.362;2023-11-21T08:26:54;15.85;;;5.40;;
37267;SDS011;23154;52.542;13.362;2023-11-21T08:29:20;17.05;;;5.40;;
37267;SDS011;23154;52.542;13.362;2023-11-21T08:31:46;16.38;;;6.10;;
37267;SDS011;23154;52.542;13.362;2023-11-21T08:34:12;17.52;;;6.03;;
37267;SDS011;23154;52.542;13.362;2023-11-21T08:36:42;18.25;;;6.85;;
37267;SDS011;23154;52.542;13.362;2023-11-21T08:39:08;17.20;;;6.65;;
37267;SDS011;23154;52.542;13.362;2023-11-21T08:41:35;17.23;;;6.30;;
37267;SDS011;23154;52.542;13.362;2023-11-21T08:44:01;17.73;;;5.88;;
37267;SDS011;23154;52.542;13.362;2023-11-21T08:46:30;15.32;;;5.03;;
37267;SDS011;23154;52.542;13.362;2023-11-21T08:48:56;19.02;;;5.80;;
37267;SDS011;23154;52.542;13.362;2023-11-21T08:51:21;17.35;;;5.78;;
37267;SDS011;23154;52.542;13.362;2023-11-21T08:53:47;15.73;;;5.60;;
37267;SDS011;23154;52.542;13.362;2023-11-21T08:56:13;16.30;;;6.22;;
37267;SDS011;23154;52.542;13.362;2023-11-21T08:58:39;16.25;;;5.97;;
37267;SDS011;23154;52.542;13.362;2023-11-21T09:01:06;16.67;;;6.00;;
37267;SDS011;23154;52.542;13.362;2023-11-21T09:03:32;16.67;;;5.57;;
37267;SDS011;23154;52.542;13.362;2023-11-21T09:05:59;19.80;;;6.45;;
37267;SDS011;23154;52.542;13.362;2023-11-21T09:08:24;17.45;;;6.25;;
37267;SDS011;23154;52.542;13.362;2023-11-21T09:10:50;18.23;;;5.75;;
37267;SDS011;23154;52.542;13.362;2023-11-21T09:13:17;21.58;;;6.43;;
37267;SDS011;23154;52.542;13.362;2023-11-21T09:15:43;18.02;;;6.45;;
37267;SDS011;23154;52.542;13.362;2023-11-21T09:18:11;19.33;;;5.47;;
37267;SDS011;23154;52.542;13.362;2023-11-21T09:20:40;21.03;;;6.37;;
37267;SDS011;23154;52.542;13.362;2023-11-21T09:23:09;18.85;;;5.78;;
37267;SDS011;23154;52.542;13.362;2023-11-21T09:25:36;20.00;;;6.53;;
37267;SDS011;23154;52.542;13.362;2023-11-21T09:28:03;20.42;;;6.78;;
37267;SDS011;23154;52.542;13.362;2023-11-21T09:30:33;21.38;;;7.40;;
37267;SDS011;23154;52.542;13.362;2023-11-21T09:32:59;22.27;;;6.78;;
37267;SDS011;23154;52.542;13.362;2023-11-21T09:35:25;23.35;;;7.55;;
37267;SDS011;23154;52.542;13.362;2023-11-21T09:37:53;22.48;;;7.50;;
37267;SDS011;23154;52.542;13.362;2023-11-21T09:40:20;24.90;;;7.63;;
37267;SDS011;23154;52.542;13.362;2023-11-21T09:45:21;25.33;;;7.70;;
37267;SDS011;23154;52.542;13.362;2023-11-21T09:47:53;23.95;;;7.45;;
37267;SDS011;23154;52.542;13.362;2023-11-21T09:50:20;27.17;;;8.02;;
37267;SDS011;23154;52.542;13.362;2023-11-21T09:52:54;22.60;;;7.70;;
37267;SDS011;23154;52.542;13.362;2023-11-21T09:55:22;28.08;;;8.40;;
37267;SDS011;23154;52.542;13.362;2023-11-21T09:57:52;25.88;;;8.05;;
37267;SDS011;23154;52.542;13.362;2023-11-21T10:00:19;29.55;;;8.05;;
37267;SDS011;23154;52.542;13.362;2023-11-21T10:02:49;22.58;;;7.68;;
37267;SDS011;23154;52.542;13.362;2023-11-21T10:05:16;25.88;;;7.72;;
37267;SDS011;23154;52.542;13.362;2023-11-21T10:07:45;24.52;;;7.43;;
37267;SDS011;23154;52.542;13.362;2023-11-21T10:10:11;24.75;;;7.72;;
37267;SDS011;23154;52.542;13.362;2023-11-21T10:12:39;29.13;;;8.13;;
37267;SDS011;23154;52.542;13.362;2023-11-21T10:15:07;24.42;;;7.57;;
37267;SDS011;23154;52.542;13.362;2023-11-21T10:17:36;27.00;;;8.27;;
37267;SDS011;23154;52.542;13.362;2023-11-21T10:20:08;22.67;;;8.30;;
37267;SDS011;23154;52.542;13.362;2023-11-21T10:22:39;20.27;;;6.90;;
37267;SDS011;23154;52.542;13.362;2023-11-21T10:25:09;23.08;;;7.60;;
37267;SDS011;23154;52.542;13.362;2023-11-21T10:27:36;23.10;;;7.15;;
37267;SDS011;23154;52.542;13.362;2023-11-21T10:30:04;18.30;;;5.38;;
37267;SDS011;23154;52.542;13.362;2023-11-21T10:32:30;18.75;;;5.38;;
37267;SDS011;23154;52.542;13.362;2023-11-21T10:34:58;17.77;;;6.00;;
37267;SDS011;23154;52.542;13.362;2023-11-21T10:37:31;18.38;;;5.95;;
37267;SDS011;23154;52.542;13.362;2023-11-21T10:40:00;19.33;;;6.40;;
37267;SDS011;23154;52.542;13.362;2023-11-21T10:42:25;15.85;;;5.63;;
37267;SDS011;23154;52.542;13.362;2023-11-21T10:44:52;17.52;;;5.80;;
37267;SDS011;23154;52.542;13.362;2023-11-21T10:47:19;19.20;;;5.78;;
37267;SDS011;23154;52.542;13.362;2023-11-21T10:49:48;18.98;;;5.75;;
37267;SDS011;23154;52.542;13.362;2023-11-21T10:52:14;17.90;;;5.82;;
37267;SDS011;23154;52.542;13.362;2023-11-21T10:54:43;18.52;;;6.20;;
37267;SDS011;23154;52.542;13.362;2023-11-21T10:57:09;17.63;;;5.25;;
37267;SDS011;23154;52.542;13.362;2023-11-21T10:59:36;13.95;;;4.70;;
37267;SDS011;23154;52.542;13.362;2023-11-21T11:02:05;15.75;;;4.82;;
37267;SDS011;23154;52.542;13.362;2023-11-21T11:04:46;12.57;;;4.18;;
37267;SDS011;23154;52.542;13.362;2023-11-21T11:07:13;10.57;;;3.63;;
37267;SDS011;23154;52.542;13.362;2023-11-21T11:09:41;11.57;;;4.00;;
37267;SDS011;23154;52.542;13.362;2023-11-21T11:12:07;14.15;;;4.45;;
37267;SDS011;23154;52.542;13.362;2023-11-21T11:14:34;15.77;;;4.25;;
37267;SDS011;23154;52.542;13.362;2023-11-21T11:17:01;11.13;;;3.65;;
37267;SDS011;23154;52.542;13.362;2023-11-21T11:19:29;14.95;;;4.05;;
37267;SDS011;23154;52.542;13.362;2023-11-21T11:22:01;14.55;;;4.90;;
37267;SDS011;23154;52.542;13.362;2023-11-21T11:27:32;14.80;;;4.57;;
37267;SDS011;23154;52.542;13.362;2023-11-21T11:30:09;10.48;;;3.38;;
37267;SDS011;23154;52.542;13.362;2023-11-21T11:32:43;12.13;;;3.45;;
37267;SDS011;23154;52.542;13.362;2023-11-21T11:38:16;14.32;;;4.28;;
37267;SDS011;23154;52.542;13.362;2023-11-21T11:40:46;11.85;;;3.70;;
37267;SDS011;23154;52.542;13.362;2023-11-21T11:43:12;11.07;;;3.65;;
37267;SDS011;23154;52.542;13.362;2023-11-21T11:45:38;12.60;;;4.18;;
37267;SDS011;23154;52.542;13.362;2023-11-21T11:48:07;11.52;;;3.65;;
37267;SDS011;23154;52.542;13.362;2023-11-21T11:50:41;13.88;;;4.07;;
37267;SDS011;23154;52.542;13.362;2023-11-21T11:53:25;13.02;;;4.18;;
37267;SDS011;23154;52.542;13.362;2023-11-21T11:55:57;12.63;;;3.88;;
37267;SDS011;23154;52.542;13.362;2023-11-21T11:58:42;13.02;;;4.57;;
37267;SDS011;23154;52.542;13.362;2023-11-21T12:01:08;13.77;;;4.28;;
37267;SDS011;23154;52.542;13.362;2023-11-21T12:03:37;10.25;;;3.63;;
37267;SDS011;23154;52.542;13.362;2023-11-21T12:06:04;10.10;;;3.20;;
37267;SDS011;23154;52.542;13.362;2023-11-21T12:08:31;10.40;;;3.72;;
37267;SDS011;23154;52.542;13.362;2023-11-21T12:10:57;7.78;;;3.17;;
37267;SDS011;23154;52.542;13.362;2023-11-21T12:13:23;12.27;;;3.97;;
37267;SDS011;23154;52.542;13.362;2023-11-21T12:15:49;14.63;;;4.38;;
37267;SDS011;23154;52.542;13.362;2023-11-21T12:18:15;13.25;;;4.70;;
37267;SDS011;23154;52.542;13.362;2023-11-21T12:20:41;14.10;;;4.70;;
37267;SDS011;23154;52.542;13.362;2023-11-21T12:23:08;14.45;;;4.90;;
37267;SDS011;23154;52.542;13.362;2023-11-21T12:25:39;16.10;;;5.30;;
37267;SDS011;23154;52.542;13.362;2023-11-21T12:28:04;15.25;;;4.50;;
37267;SDS011;23154;52.542;13.362;2023-11-21T12:30:36;13.90;;;4.82;;
37267;SDS011;23154;52.542;13.362;2023-11-21T12:33:02;15.48;;;4.80;;
37267;SDS011;23154;52.542;13.362;2023-11-21T12:35:30;14.52;;;4.85;;
37267;SDS011;23154;52.542;13.362;2023-11-21T12:37:59;16.10;;;5.10;;
37267;SDS011;23154;52.542;13.362;2023-11-21T12:40:25;13.75;;;4.50;;
37267;SDS011;23154;52.542;13.362;2023-11-21T12:42:52;13.15;;;4.57;;
37267;SDS011;23154;52.542;13.362;2023-11-21T12:45:20;12.52;;;4.15;;
37267;SDS011;23154;52.542;13.362;2023-11-21T12:47:48;14.23;;;4.70;;
37267;SDS011;23154;52.542;13.362;2023-11-21T12:50:15;13.00;;;4.30;;
37267;SDS011;23154;52.542;13.362;2023-11-21T12:52:46;12.43;;;4.20;;
37267;SDS011;23154;52.542;13.362;2023-11-21T12:55:13;16.60;;;5.07;;
37267;SDS011;23154;52.542;13.362;2023-11-21T12:57:43;16.20;;;5.32;;
37267;SDS011;23154;52.542;13.362;2023-11-21T13:00:10;14.27;;;4.80;;
37267;SDS011;23154;52.542;13.362;2023-11-21T13:02:52;15.18;;;5.65;;
37267;SDS011;23154;52.542;13.362;2023-11-21T13:05:27;13.65;;;4.75;;
37267;SDS011;23154;52.542;13.362;2023-11-21T13:07:58;17.02;;;5.80;;
37267;SDS011;23154;52.542;13.362;2023-11-21T13:10:27;15.10;;;5.35;;
37267;SDS011;23154;52.542;13.362;2023-11-21T13:12:56;17.38;;;5.72;;
37267;SDS011;23154;52.542;13.362;2023-11-21T13:15:27;15.07;;;4.97;;
37267;SDS011;23154;52.542;13.362;2023-11-21T13:17:53;16.35;;;5.18;;
37267;SDS011;23154;52.542;13.362;2023-11-21T13:20:21;16.85;;;6.25;;
37267;SDS011;23154;52.542;13.362;2023-11-21T13:22:56;17.98;;;6.40;;
37267;SDS011;23154;52.542;13.362;2023-11-21T13:25:24;21.13;;;8.13;;
37267;SDS011;23154;52.542;13.362;2023-11-21T13:27:52;24.05;;;7.68;;
37267;SDS011;23154;52.542;13.362;2023-11-21T13:30:21;17.65;;;7.60;;
37267;SDS011;23154;52.542;13.362;2023-11-21T13:32:52;19.83;;;7.95;;
37267;SDS011;23154;52.542;13.362;2023-11-21T13:35:22;23.73;;;9.23;;
37267;SDS011;23154;52.542;13.362;2023-11-21T13:37:56;22.80;;;8.98;;
37267;SDS011;23154;52.542;13.362;2023-11-21T13:40:25;23.98;;;9.55;;
37267;SDS011;23154;52.542;13.362;2023-11-21T13:42:54;22.83;;;9.60;;
37267;SDS011;23154;52.542;13.362;2023-11-21T13:45:24;26.65;;;9.80;;
37267;SDS011;23154;52.542;13.362;2023-11-21T13:47:51;28.63;;;10.88;;
37267;SDS011;23154;52.542;13.362;2023-11-21T13:50:20;27.80;;;10.65;;
37267;SDS011;23154;52.542;13.362;2023-11-21T13:52:53;28.05;;;10.85;;
37267;SDS011;23154;52.542;13.362;2023-11-21T13:55:19;31.23;;;12.70;;
37267;SDS011;23154;52.542;13.362;2023-11-21T13:57:46;33.70;;;13.88;;
37267;SDS011;23154;52.542;13.362;2023-11-21T14:00:14;37.65;;;13.73;;
37267;SDS011;23154;52.542;13.362;2023-11-21T14:02:59;38.97;;;15.20;;
37267;SDS011;23154;52.542;13.362;2023-11-21T14:05:25;36.92;;;15.07;;
37267;SDS011;23154;52.542;13.362;2023-11-21T14:07:55;41.80;;;17.33;;
37267;SDS011;23154;52.542;13.362;2023-11-21T14:10:21;43.33;;;17.55;;
37267;SDS011;23154;52.542;13.362;2023-11-21T14:12:49;39.67;;;15.15;;
37267;SDS011;23154;52.542;13.362;2023-11-21T14:15:15;32.55;;;12.80;;
37267;SDS011;23154;52.542;13.362;2023-11-21T14:17:44;31.77;;;11.13;;
37267;SDS011;23154;52.542;13.362;2023-11-21T14:20:10;28.45;;;10.30;;
37267;SDS011;23154;52.542;13.362;2023-11-21T14:22:41;28.08;;;12.55;;
37267;SDS011;23154;52.542;13.362;2023-11-21T14:25:07;27.02;;;11.43;;
37267;SDS011;23154;52.542;13.362;2023-11-21T14:27:33;29.27;;;12.70;;
37267;SDS011;23154;52.542;13.362;2023-11-21T14:30:01;30.70;;;13.23;;